Time;durP1;ratioP1;P1;durP2;ratioP2;P2;SDS_P1;SDS_P2;PMS_P1;PMS_P2;Temp;Humidity;BMP_temperature;BMP_pressure;BME280_temperature;BME280_humidity;BME280_pressure;Samples;Min_cycle;Max_cycle;Signal;HPM_P1;HPM_P2
2022/01/02 00:00:40;;;;;;;3.65;0.75;;;11.00;99.90;;;;;;5069199;28;20170;-83
2022/01/02 00:03:08;;;;;;;6.68;0.80;;;11.10;99.90;;;;;;5052714;28;20067;-83
2022/01/02 00:05:36;;;;;;;1.83;0.82;;;11.10;99.90;;;;;;5068935;28;20032;-83
2022/01/02 00:08:11;;;;;;;2.78;0.80;;;11.10;99.90;;;;;;5069188;28;20032;-83
2022/01/02 00:10:56;;;;;;;2.70;0.90;;;11.10;99.90;;;;;;5052253;28;20066;-84
2022/01/02 00:13:31;;;;;;;2.92;1.00;;;11.10;99.90;;;;;;5069115;28;20047;-83
2022/01/02 00:16:03;;;;;;;2.97;0.85;;;11.10;99.90;;;;;;5069031;28;20032;-84
2022/01/02 00:18:33;;;;;;;3.20;0.90;;;11.00;99.90;;;;;;5068947;28;20028;-84
2022/01/02 00:21:02;;;;;;;2.22;0.70;;;11.00;99.90;;;;;;5051311;28;20036;-84
2022/01/02 00:23:32;;;;;;;3.50;1.05;;;10.90;99.90;;;;;;5069259;28;20062;-84
2022/01/02 00:26:04;;;;;;;;;;;11.00;99.90;;;;;;5085905;28;20044;-84
2022/01/02 00:28:31;;;;;;;2.42;0.77;;;10.90;99.90;;;;;;5068859;28;19963;-83
2022/01/02 00:30:58;;;;;;;3.47;1.30;;;10.90;99.90;;;;;;5068712;28;20060;-84
2022/01/02 00:33:25;;;;;;;2.42;0.80;;;10.90;99.90;;;;;;5068638;28;20028;-83
2022/01/02 00:35:50;;;;;;;5.20;1.00;;;10.90;99.90;;;;;;5068283;28;20036;-84
2022/01/02 00:38:21;;;;;;;2.65;0.60;;;10.80;99.90;;;;;;5069591;28;20024;-84
2022/01/02 00:40:50;;;;;;;3.03;0.70;;;10.80;99.90;;;;;;5088360;28;20028;-83
2022/01/02 00:43:22;;;;;;;3.13;1.05;;;10.80;99.90;;;;;;5072034;28;20028;-83
2022/01/02 00:45:51;;;;;;;3.53;1.02;;;10.80;99.90;;;;;;5071949;28;20139;-84
2022/01/02 00:48:28;;;;;;;4.15;1.10;;;10.90;99.90;;;;;;5071860;28;20082;-84
2022/01/02 00:51:03;;;;;;;2.75;0.98;;;10.90;99.90;;;;;;5088224;28;20029;-84
2022/01/02 00:53:34;;;;;;;2.50;0.73;;;10.90;99.90;;;;;;5071982;28;20085;-84
2022/01/02 00:56:01;;;;;;;2.90;0.60;;;10.90;99.90;;;;;;5071592;28;20047;-83
2022/01/02 00:58:37;;;;;;;2.85;1.10;;;10.90;99.90;;;;;;5088186;28;20020;-85
2022/01/02 01:01:06;;;;;;;3.45;0.95;;;10.90;99.90;;;;;;5071534;28;20098;-84
2022/01/02 01:03:32;;;;;;;4.32;0.95;;;10.90;99.90;;;;;;5088294;28;20032;-84
2022/01/02 01:06:03;;;;;;;3.50;1.00;;;11.00;99.90;;;;;;5087984;28;20031;-84
2022/01/02 01:08:30;;;;;;;5.70;1.00;;;11.00;99.90;;;;;;5071593;28;20052;-84
2022/01/02 01:10:56;;;;;;;3.60;1.00;;;11.10;99.90;;;;;;5088193;28;20055;-85
2022/01/02 01:13:23;;;;;;;2.33;0.90;;;11.00;99.90;;;;;;5071428;28;20046;-85
2022/01/02 01:15:50;;;;;;;5.05;1.02;;;11.10;99.90;;;;;;5071442;28;20095;-85
2022/01/02 01:18:16;;;;;;;3.78;1.05;;;11.00;99.90;;;;;;5071644;28;20024;-85
2022/01/02 01:20:44;;;;;;;9.15;2.85;;;11.00;99.90;;;;;;5071394;28;20050;-85
2022/01/02 01:23:15;;;;;;;4.70;2.67;;;10.90;99.90;;;;;;5088248;28;20088;-85
2022/01/02 01:25:45;;;;;;;8.55;1.98;;;10.90;99.90;;;;;;5087972;28;20028;-85
2022/01/02 01:28:11;;;;;;;3.45;1.88;;;10.90;99.90;;;;;;5071193;28;20058;-86
2022/01/02 01:30:37;;;;;;;3.55;1.38;;;10.80;99.90;;;;;;5071377;28;20048;-87
2022/01/02 01:33:03;;;;;;;3.70;1.30;;;10.80;99.90;;;;;;5088054;28;20480;-86
2022/01/02 01:35:29;;;;;;;3.40;1.02;;;10.80;99.90;;;;;;5088126;28;20104;-85
2022/01/02 01:37:54;;;;;;;6.22;1.52;;;10.80;99.90;;;;;;5088329;28;20033;-86
2022/01/02 01:40:21;;;;;;;4.43;1.08;;;10.80;99.90;;;;;;5049595;28;20033;-86
2022/01/02 01:42:58;;;;;;;4.50;1.30;;;10.80;99.90;;;;;;5064734;28;20036;-86
2022/01/02 01:47:57;;;;;;;7.45;2.17;;;10.80;99.90;;;;;;5064907;28;20064;-86
2022/01/02 01:50:28;;;;;;;5.93;1.90;;;10.80;99.90;;;;;;5047703;28;20108;-86
2022/01/02 01:52:54;;;;;;;4.88;2.67;;;10.70;99.90;;;;;;5048020;28;20021;-86
2022/01/02 01:55:23;;;;;;;6.00;2.30;;;10.70;99.90;;;;;;5064253;28;20029;-86
2022/01/02 01:57:51;;;;;;;5.15;2.88;;;10.70;99.90;;;;;;5064507;28;20060;-86
2022/01/02 02:00:19;;;;;;;4.40;2.67;;;10.70;99.90;;;;;;5047738;28;20056;-86
2022/01/02 02:02:49;;;;;;;5.53;2.85;;;10.60;99.90;;;;;;5048386;28;20032;-85
2022/01/02 02:05:16;;;;;;;5.80;3.22;;;10.70;99.90;;;;;;5047843;28;20235;-86
2022/01/02 02:07:46;;;;;;;4.43;2.25;;;10.70;99.90;;;;;;5064453;28;20025;-85
2022/01/02 02:10:33;;;;;;;4.80;1.98;;;10.70;99.90;;;;;;5064293;28;20041;-86
2022/01/02 02:13:03;;;;;;;4.97;1.83;;;10.70;99.90;;;;;;5049451;28;20033;-85
2022/01/02 02:15:32;;;;;;;3.80;1.48;;;10.70;99.90;;;;;;5049045;28;20100;-85
2022/01/02 02:17:58;;;;;;;4.20;1.80;;;10.70;99.90;;;;;;5048898;28;20037;-85
2022/01/02 02:20:30;;;;;;;4.53;1.73;;;10.70;99.90;;;;;;5047648;28;20044;-86
2022/01/02 02:22:59;;;;;;;4.95;1.63;;;10.70;99.90;;;;;;5047725;28;20096;-85
2022/01/02 02:25:31;;;;;;;4.85;1.70;;;10.70;99.90;;;;;;5047551;28;20075;-86
2022/01/02 02:28:17;;;;;;;5.75;1.27;;;10.60;99.90;;;;;;5047065;28;20036;-85
2022/01/02 02:30:48;;;;;;;3.92;1.00;;;10.70;99.90;;;;;;4968026;28;20114;-86
2022/01/02 02:33:15;;;;;;;4.97;1.00;;;10.80;99.90;;;;;;4952182;28;20043;-85
2022/01/02 02:35:42;;;;;;;6.97;1.30;;;10.80;99.90;;;;;;4967838;28;20098;-85
2022/01/02 02:38:09;;;;;;;3.70;1.00;;;10.80;99.90;;;;;;4968288;28;20049;-85
2022/01/02 02:40:37;;;;;;;5.60;1.00;;;10.80;99.90;;;;;;4987105;28;20030;-85
2022/01/02 02:43:12;;;;;;;6.97;1.30;;;10.80;99.90;;;;;;5003329;28;20038;-85
2022/01/02 02:51:13;;;;;;;7.60;1.40;;;10.90;99.90;;;;;;4990452;28;20130;-84
2022/01/02 02:53:43;;;;;;;7.07;1.20;;;10.90;99.90;;;;;;5006899;28;20038;-86
2022/01/02 02:56:19;;;;;;;6.00;1.20;;;11.00;99.90;;;;;;4990130;28;20034;-86
2022/01/02 02:58:49;;;;;;;4.05;0.77;;;11.00;99.90;;;;;;5006614;28;20041;-85
2022/01/02 03:01:16;;;;;;;;;;;10.90;99.90;;;;;;4990829;28;20526;-85
2022/01/02 03:03:44;;;;;;;3.85;0.80;;;10.90;99.90;;;;;;5006765;28;19916;-85
2022/01/02 03:06:11;;;;;;;3.53;1.17;;;10.90;99.90;;;;;;5006331;28;20042;-85
2022/01/02 03:08:37;;;;;;;6.05;1.08;;;11.00;99.90;;;;;;5040675;28;20041;-85
2022/01/02 03:11:04;;;;;;;6.90;2.13;;;11.00;99.90;;;;;;5050460;28;20029;-85
2022/01/02 03:13:30;;;;;;;6.40;1.20;;;11.10;99.90;;;;;;5050403;28;20033;-86
2022/01/02 03:15:56;;;;;;;6.40;1.33;;;11.30;99.90;;;;;;5033894;28;20039;-85
2022/01/02 03:18:22;;;;;;;6.30;0.90;;;11.40;99.90;;;;;;5050323;28;20056;-85
2022/01/02 03:20:47;;;;;;;7.10;0.93;;;11.40;99.90;;;;;;5050225;28;20055;-85
2022/01/02 03:23:13;;;;;;;7.18;1.10;;;11.30;99.90;;;;;;5033768;28;20459;-85
2022/01/02 03:25:39;;;;;;;5.15;1.63;;;11.30;99.90;;;;;;5050222;28;20108;-85
2022/01/02 03:28:04;;;;;;;3.50;1.30;;;11.20;99.90;;;;;;5048400;28;20535;-85
2022/01/02 03:30:30;;;;;;;7.55;1.30;;;11.20;99.90;;;;;;5033382;28;20045;-85
2022/01/02 03:32:56;;;;;;;5.07;1.02;;;11.10;99.90;;;;;;5050077;28;20032;-85
2022/01/02 03:35:22;;;;;;;3.50;0.95;;;11.10;99.90;;;;;;5050094;28;20076;-85
2022/01/02 03:37:47;;;;;;;4.18;0.70;;;11.00;99.90;;;;;;5033508;28;20033;-85
2022/01/02 03:40:13;;;;;;;4.78;1.00;;;11.10;99.90;;;;;;5070160;28;20119;-85
2022/01/02 03:42:40;;;;;;;4.47;1.17;;;11.00;99.90;;;;;;5073410;28;20053;-84
2022/01/02 03:45:07;;;;;;;5.13;1.00;;;11.10;99.90;;;;;;5089935;28;20035;-85
2022/01/02 03:47:32;;;;;;;5.85;1.60;;;11.00;99.90;;;;;;5073305;28;20032;-85
2022/01/02 03:49:58;;;;;;;4.97;1.33;;;11.00;99.90;;;;;;5073287;28;20050;-85
2022/01/02 03:52:25;;;;;;;4.78;1.27;;;11.10;99.90;;;;;;5089730;28;20032;-85
2022/01/02 03:54:51;;;;;;;5.95;1.10;;;11.10;99.90;;;;;;5089999;28;20028;-84
2022/01/02 03:57:17;;;;;;;7.43;1.48;;;11.10;99.90;;;;;;5089671;28;20028;-85
2022/01/02 03:59:42;;;;;;;5.20;0.80;;;11.10;99.90;;;;;;5106524;28;20066;-85
2022/01/02 04:02:09;;;;;;;5.05;1.23;;;11.20;99.90;;;;;;5106591;28;20028;-86
2022/01/02 04:04:35;;;;;;;5.18;1.00;;;11.30;99.90;;;;;;5089756;28;20446;-84
2022/01/02 04:07:01;;;;;;;4.50;0.93;;;11.40;99.90;;;;;;5074352;28;20031;-85
2022/01/02 04:09:27;;;;;;;5.85;1.35;;;11.40;99.90;;;;;;5072543;28;20569;-84
2022/01/02 04:11:52;;;;;;;6.07;0.93;;;11.40;99.90;;;;;;5072805;28;20455;-84
2022/01/02 04:14:19;;;;;;;3.97;1.17;;;11.40;99.90;;;;;;5072606;28;20028;-84
2022/01/02 04:16:44;;;;;;;6.40;1.08;;;11.40;99.90;;;;;;5089332;28;20032;-84
2022/01/02 04:19:10;;;;;;;6.85;2.22;;;11.30;99.90;;;;;;5072446;28;20035;-85
2022/01/02 04:21:36;;;;;;;8.82;3.20;;;11.30;99.90;;;;;;5072537;28;20026;-84
2022/01/02 04:24:02;;;;;;;6.68;1.63;;;11.40;99.90;;;;;;5072434;28;20085;-84
2022/01/02 04:26:28;;;;;;;5.20;1.35;;;11.30;99.90;;;;;;5072708;28;20035;-84
2022/01/02 04:28:55;;;;;;;6.47;0.95;;;11.30;99.90;;;;;;5088428;28;20032;-85
2022/01/02 04:31:21;;;;;;;5.15;0.93;;;11.30;99.90;;;;;;5105966;28;20487;-85
2022/01/02 04:33:46;;;;;;;4.00;1.10;;;11.20;99.90;;;;;;5088853;28;20028;-84
2022/01/02 04:36:12;;;;;;;6.30;1.27;;;11.20;99.90;;;;;;5088911;28;20035;-85
2022/01/02 04:38:39;;;;;;;5.13;1.23;;;11.20;99.90;;;;;;5064706;28;20024;-84
2022/01/02 04:41:05;;;;;;;5.25;1.20;;;11.20;99.90;;;;;;5048561;28;20055;-85
2022/01/02 04:43:31;;;;;;;6.47;1.35;;;11.20;99.90;;;;;;5049025;28;20093;-86
2022/01/02 04:45:56;;;;;;;9.32;1.70;;;11.20;99.90;;;;;;5048500;28;20032;-84
2022/01/02 04:48:23;;;;;;;7.78;1.83;;;11.20;99.90;;;;;;5048463;28;20037;-85
2022/01/02 04:50:50;;;;;;;5.40;1.63;;;11.20;99.90;;;;;;5048505;28;20499;-84
2022/01/02 04:53:16;;;;;;;6.15;1.40;;;11.10;99.90;;;;;;5048416;28;20093;-84
2022/01/02 04:55:43;;;;;;;6.93;2.15;;;11.10;99.90;;;;;;5064898;28;20036;-85
2022/01/02 04:58:09;;;;;;;6.55;2.10;;;11.10;99.90;;;;;;5048324;28;20465;-85
2022/01/02 05:00:36;;;;;;;6.97;1.83;;;11.10;99.90;;;;;;5048111;28;20049;-85
2022/01/02 05:03:02;;;;;;;5.88;1.92;;;11.20;99.90;;;;;;5048408;28;20025;-85
2022/01/02 05:05:28;;;;;;;6.00;1.42;;;11.10;99.90;;;;;;5048033;28;20033;-86
2022/01/02 05:07:55;;;;;;;6.68;1.55;;;11.20;99.90;;;;;;5047783;28;20029;-85
2022/01/02 05:10:20;;;;;;;6.82;0.90;;;11.20;99.90;;;;;;5047954;28;20567;-84
2022/01/02 05:12:46;;;;;;;8.38;1.75;;;11.20;99.90;;;;;;5048147;28;20440;-85
2022/01/02 05:15:12;;;;;;;4.97;0.60;;;11.20;99.90;;;;;;5048189;28;20052;-85
2022/01/02 05:17:38;;;;;;;3.40;0.70;;;11.10;99.90;;;;;;5048194;28;20036;-84
2022/01/02 05:20:05;;;;;;;7.40;1.00;;;11.20;99.90;;;;;;5047777;28;20028;-84
2022/01/02 05:22:31;;;;;;;4.68;0.88;;;11.20;99.90;;;;;;5048061;28;20029;-84
2022/01/02 05:24:57;;;;;;;6.90;1.58;;;11.20;99.90;;;;;;5047739;28;20041;-85
2022/01/02 05:27:23;;;;;;;6.25;1.45;;;11.30;99.90;;;;;;5048196;28;20033;-84
2022/01/02 05:29:49;;;;;;;5.85;1.50;;;11.30;99.90;;;;;;5047306;28;20087;-84
2022/01/02 05:32:15;;;;;;;3.53;0.68;;;11.20;99.90;;;;;;5047856;28;20051;-85
2022/01/02 05:34:41;;;;;;;3.05;0.85;;;11.20;99.90;;;;;;5047916;28;20032;-84
2022/01/02 05:37:07;;;;;;;6.50;2.22;;;11.20;99.90;;;;;;5047840;28;20025;-84
2022/01/02 05:39:35;;;;;;;6.85;2.03;;;11.20;99.90;;;;;;5071462;28;20114;-84
2022/01/02 05:42:01;;;;;;;7.95;2.38;;;11.10;99.90;;;;;;5071089;28;20025;-83
2022/01/02 05:44:27;;;;;;;5.03;1.77;;;11.10;99.90;;;;;;5071112;28;20039;-83
2022/01/02 05:46:53;;;;;;;7.78;1.50;;;11.10;99.90;;;;;;5070959;28;20127;-84
2022/01/02 05:49:19;;;;;;;6.32;1.23;;;11.00;99.90;;;;;;5070778;28;20391;-84
2022/01/02 05:51:45;;;;;;;6.30;1.10;;;11.00;99.90;;;;;;5071253;28;20035;-83
2022/01/02 05:54:11;;;;;;;5.00;1.27;;;10.90;99.90;;;;;;5071104;28;20115;-84
2022/01/02 05:56:37;;;;;;;6.25;0.90;;;10.90;99.90;;;;;;5071005;28;20039;-83
2022/01/02 05:59:03;;;;;;;4.47;0.80;;;10.90;99.90;;;;;;5087355;28;20077;-84
2022/01/02 06:01:29;;;;;;;6.68;0.70;;;10.90;99.90;;;;;;5070779;28;20080;-84
2022/01/02 06:03:57;;;;;;;5.78;0.60;;;10.80;99.90;;;;;;5088033;28;20117;-84
2022/01/02 06:06:24;;;;;;;4.75;0.70;;;10.80;99.90;;;;;;5087746;28;20021;-83
2022/01/02 06:08:49;;;;;;;3.55;1.00;;;10.80;99.90;;;;;;5070605;28;20047;-83
2022/01/02 06:11:15;;;;;;;8.43;0.98;;;10.80;99.90;;;;;;5070737;28;20048;-84
2022/01/02 06:13:40;;;;;;;3.70;0.80;;;10.80;99.90;;;;;;5070862;28;20099;-83
2022/01/02 06:16:08;;;;;;;5.32;1.00;;;10.90;99.90;;;;;;5071034;28;20028;-84
2022/01/02 06:18:34;;;;;;;5.28;1.10;;;10.90;99.90;;;;;;5087463;28;20036;-84
2022/01/02 06:20:59;;;;;;;5.65;1.60;;;10.90;99.90;;;;;;5074535;28;20028;-84
2022/01/02 06:23:25;;;;;;;7.28;1.17;;;10.90;99.90;;;;;;5091625;28;20024;-85
2022/01/02 06:25:51;;;;;;;5.40;1.08;;;10.90;99.90;;;;;;5074634;28;20480;-83
2022/01/02 06:28:17;;;;;;;4.95;0.90;;;10.90;99.90;;;;;;5074662;28;20028;-84
2022/01/02 06:30:43;;;;;;;3.38;1.15;;;10.90;99.90;;;;;;5090997;28;20515;-89
2022/01/02 06:33:09;;;;;;;3.72;0.80;;;10.90;99.90;;;;;;5058384;28;20039;-86
2022/01/02 06:35:35;;;;;;;4.05;0.63;;;10.90;99.90;;;;;;5054432;28;20032;-87
2022/01/02 06:38:15;;;;;;;3.35;0.68;;;10.90;99.90;;;;;;5054543;28;20021;-86
2022/01/02 06:40:42;;;;;;;6.13;0.80;;;10.90;99.90;;;;;;5034810;28;20029;-86
2022/01/02 06:43:08;;;;;;;5.32;1.00;;;10.90;99.90;;;;;;5054139;28;20133;-85
2022/01/02 06:45:36;;;;;;;6.20;0.82;;;10.90;99.90;;;;;;5107768;28;20024;-85
2022/01/02 06:48:04;;;;;;;8.23;1.23;;;10.90;99.90;;;;;;5074063;28;20028;-85
2022/01/02 06:50:31;;;;;;;3.03;0.90;;;10.90;99.90;;;;;;5074283;28;20032;-86
2022/01/02 06:52:58;;;;;;;5.95;0.90;;;10.90;99.90;;;;;;5091220;28;20024;-86
2022/01/02 06:55:24;;;;;;;5.15;0.80;;;10.90;99.90;;;;;;5090655;28;20032;-86
2022/01/02 06:57:50;;;;;;;4.40;0.90;;;10.90;99.90;;;;;;5073856;28;20020;-85
2022/01/02 07:00:17;;;;;;;4.22;0.68;;;10.90;99.90;;;;;;5074205;28;20034;-86
2022/01/02 07:02:43;;;;;;;5.75;0.77;;;10.90;99.90;;;;;;5090410;28;20107;-84
2022/01/02 07:05:10;;;;;;;6.35;0.70;;;10.90;99.90;;;;;;5073795;28;20054;-86
2022/01/02 07:07:40;;;;;;;6.35;1.15;;;10.90;99.90;;;;;;5090843;28;20031;-86
2022/01/02 07:10:06;;;;;;;3.83;0.77;;;10.90;99.90;;;;;;5073594;28;20051;-85
2022/01/02 07:12:32;;;;;;;5.65;1.02;;;10.90;99.90;;;;;;5073845;28;20028;-86
2022/01/02 07:14:58;;;;;;;6.22;0.93;;;10.90;99.90;;;;;;5073638;28;20043;-84
2022/01/02 07:17:23;;;;;;;2.85;0.60;;;10.90;99.90;;;;;;5090446;28;20119;-86
2022/01/02 07:19:49;;;;;;;3.65;0.50;;;10.90;99.90;;;;;;5073534;28;20103;-85
2022/01/02 07:22:14;;;;;;;3.20;0.55;;;10.90;99.90;;;;;;5073689;28;20082;-85
2022/01/02 07:24:40;;;;;;;3.08;0.82;;;10.90;99.90;;;;;;5073507;28;20391;-86
2022/01/02 07:27:06;;;;;;;4.43;0.70;;;10.90;99.90;;;;;;5073479;28;20020;-85
2022/01/02 07:29:31;;;;;;;2.83;0.88;;;10.90;99.90;;;;;;5089460;28;20116;-85
2022/01/02 07:31:57;;;;;;;3.92;1.02;;;10.90;99.90;;;;;;5072579;28;20028;-86
2022/01/02 07:34:22;;;;;;;4.53;0.80;;;10.90;99.90;;;;;;5073241;28;20043;-86
2022/01/02 07:36:48;;;;;;;4.88;0.60;;;10.90;99.90;;;;;;5073264;28;20122;-85
2022/01/02 07:39:15;;;;;;;5.10;1.27;;;10.90;99.90;;;;;;5097681;28;20028;-85
2022/01/02 07:41:41;;;;;;;4.38;0.70;;;10.80;99.90;;;;;;5053031;28;20051;-85
2022/01/02 07:44:07;;;;;;;4.32;0.60;;;10.80;99.90;;;;;;5053296;28;20025;-85
2022/01/02 07:46:33;;;;;;;4.30;0.70;;;10.80;99.90;;;;;;5052676;28;20032;-85
2022/01/02 07:48:59;;;;;;;4.93;0.80;;;10.80;99.90;;;;;;5052762;28;20051;-87
2022/01/02 07:51:25;;;;;;;4.40;0.63;;;10.80;99.90;;;;;;5052923;28;20033;-85
2022/01/02 07:53:50;;;;;;;3.47;0.70;;;10.80;99.90;;;;;;5053130;28;20025;-85
2022/01/02 07:56:16;;;;;;;3.65;0.70;;;10.80;99.90;;;;;;5052727;28;20541;-88
2022/01/02 07:58:41;;;;;;;4.05;0.70;;;10.80;99.90;;;;;;5069471;28;20266;-87
2022/01/02 08:01:12;;;;;;;4.80;0.52;;;10.80;99.90;;;;;;5052445;28;20025;-86
2022/01/02 08:03:38;;;;;;;4.38;0.70;;;10.80;99.90;;;;;;5069459;28;20036;-89
2022/01/02 08:06:03;;;;;;;3.83;1.25;;;10.90;99.90;;;;;;5052593;28;20039;-90
2022/01/02 08:08:29;;;;;;;2.65;0.80;;;10.80;99.90;;;;;;5069457;28;20036;-88
2022/01/02 08:10:55;;;;;;;5.38;1.10;;;10.80;99.90;;;;;;5052614;28;20070;-86
2022/01/02 08:13:20;;;;;;;6.72;0.80;;;10.90;99.90;;;;;;5052705;28;20036;-85
2022/01/02 08:15:48;;;;;;;7.32;1.13;;;10.90;99.90;;;;;;5052140;28;20054;-88
2022/01/02 08:18:13;;;;;;;4.38;0.98;;;10.90;99.90;;;;;;5052375;28;20025;-88
2022/01/02 08:20:45;;;;;;;4.78;1.20;;;10.90;99.90;;;;;;5052198;28;20035;-85
2022/01/02 08:23:14;;;;;;;5.32;1.50;;;10.90;99.90;;;;;;5052513;28;20039;-86
2022/01/02 08:25:40;;;;;;;4.95;0.90;;;11.00;99.90;;;;;;5052296;28;20039;-87
2022/01/02 08:28:06;;;;;;;4.00;0.60;;;10.90;99.90;;;;;;5052259;28;20032;-84
2022/01/02 08:30:32;;;;;;;8.63;0.93;;;10.90;99.90;;;;;;5051473;28;20074;-88
2022/01/02 08:32:58;;;;;;;4.20;1.50;;;10.80;99.90;;;;;;5052140;28;20033;-86
2022/01/02 08:35:24;;;;;;;8.15;1.42;;;10.90;99.90;;;;;;5052105;28;20207;-86
2022/01/02 08:37:49;;;;;;;4.93;1.48;;;10.80;99.90;;;;;;5052278;28;20111;-89
2022/01/02 08:40:15;;;;;;;4.32;1.17;;;10.80;99.90;;;;;;5069392;28;20032;-86
2022/01/02 08:42:41;;;;;;;7.93;2.25;;;10.70;99.90;;;;;;5071490;28;20058;-86
2022/01/02 08:45:07;;;;;;;4.38;1.10;;;10.70;99.90;;;;;;5071670;28;20032;-86
2022/01/02 08:47:32;;;;;;;4.78;1.23;;;10.70;99.90;;;;;;5072089;28;20092;-87
2022/01/02 08:49:58;;;;;;;5.13;0.90;;;10.80;99.90;;;;;;5071992;28;20162;-87
2022/01/02 08:52:24;;;;;;;2.50;0.70;;;10.80;99.90;;;;;;5071599;28;20039;-87
2022/01/02 08:54:50;;;;;;;3.42;0.80;;;10.80;99.90;;;;;;5087738;28;20036;-91
2022/01/02 08:57:16;;;;;;;3.75;1.13;;;10.80;99.90;;;;;;5071285;28;20036;-91
2022/01/02 08:59:42;;;;;;;6.88;1.08;;;10.80;99.90;;;;;;5088428;28;20032;-91
2022/01/02 09:02:07;;;;;;;3.08;1.10;;;10.80;99.90;;;;;;5071233;28;20039;-90
2022/01/02 09:04:33;;;;;;;5.32;1.13;;;10.80;99.90;;;;;;5087833;28;20039;-91
2022/01/02 09:06:59;;;;;;;3.42;0.80;;;10.80;99.90;;;;;;5070942;28;20031;-89
2022/01/02 09:09:24;;;;;;;5.05;0.90;;;10.90;99.90;;;;;;5070890;28;20148;-89
2022/01/02 09:11:51;;;;;;;2.28;0.70;;;11.10;99.90;;;;;;5105904;28;20031;-91
2022/01/02 09:14:17;;;;;;;2.65;1.20;;;11.00;99.90;;;;;;5070819;28;20031;-87
2022/01/02 09:16:44;;;;;;;3.78;0.95;;;11.10;99.90;;;;;;5070819;28;20027;-91
2022/01/02 09:19:11;;;;;;;2.88;0.85;;;11.00;99.90;;;;;;5087360;28;20302;-90
2022/01/02 09:21:37;;;;;;;5.00;1.10;;;11.00;99.90;;;;;;5070957;28;20039;-89
2022/01/02 09:24:04;;;;;;;4.20;1.02;;;11.00;99.90;;;;;;5071143;28;20062;-90
2022/01/02 09:26:29;;;;;;;4.00;0.95;;;11.00;99.90;;;;;;5071084;28;20028;-92
2022/01/02 09:28:55;;;;;;;3.75;0.80;;;11.10;99.90;;;;;;5080161;28;20044;-90
2022/01/02 09:31:21;;;;;;;2.17;0.90;;;11.00;99.90;;;;;;5079417;28;20127;-92
2022/01/02 09:33:47;;;;;;;5.03;0.80;;;11.00;99.90;;;;;;5089412;28;20054;-85
2022/01/02 09:36:12;;;;;;;2.42;1.23;;;11.00;99.90;;;;;;5072028;28;20032;-89
2022/01/02 09:38:38;;;;;;;3.00;1.35;;;10.90;99.90;;;;;;5066743;28;20029;-86
2022/01/02 09:41:04;;;;;;;4.13;0.90;;;11.00;99.90;;;;;;5067624;28;20050;-87
2022/01/02 09:43:30;;;;;;;3.90;0.95;;;11.10;99.90;;;;;;5067416;28;20099;-86
2022/01/02 09:45:56;;;;;;;2.72;0.70;;;11.10;99.90;;;;;;5067403;28;20032;-86
2022/01/02 09:48:22;;;;;;;5.03;0.98;;;11.20;99.90;;;;;;5037024;28;20049;-86
2022/01/02 09:50:50;;;;;;;2.90;0.88;;;11.20;99.90;;;;;;5004690;28;20229;-86
2022/01/02 09:53:15;;;;;;;2.72;0.80;;;11.20;99.90;;;;;;5064856;28;20039;-86
2022/01/02 09:55:41;;;;;;;1.98;0.70;;;11.20;99.90;;;;;;5028200;28;20487;-89
2022/01/02 09:58:11;;;;;;;6.70;1.13;;;11.30;99.90;;;;;;5053679;28;20032;-85
2022/01/02 10:00:44;;;;;;;2.88;0.70;;;11.20;99.90;;;;;;5074388;28;20162;-86
2022/01/02 10:03:10;;;;;;;4.00;1.10;;;11.30;99.90;;;;;;5058383;28;20123;-85
2022/01/02 10:05:56;;;;;;;4.65;0.77;;;11.40;99.90;;;;;;5069209;28;20036;-85
2022/01/02 10:08:36;;;;;;;4.20;1.35;;;11.30;99.90;;;;;;5056468;28;20031;-83
2022/01/02 10:11:03;;;;;;;3.53;1.30;;;11.40;99.90;;;;;;5066679;28;20480;-85
2022/01/02 10:13:48;;;;;;;3.40;1.13;;;11.40;99.90;;;;;;5055059;28;20040;-85
2022/01/02 10:16:31;;;;;;;2.60;1.20;;;11.40;99.90;;;;;;5067213;28;20044;-84
2022/01/02 10:18:58;;;;;;;5.13;1.15;;;11.40;99.90;;;;;;5069886;28;20031;-85
2022/01/02 10:21:37;;;;;;;7.40;1.35;;;11.50;99.90;;;;;;5042598;28;20050;-84
2022/01/02 10:24:12;;;;;;;5.88;1.60;;;11.70;99.90;;;;;;5050388;28;20056;-85
2022/01/02 10:26:38;;;;;;;3.45;1.38;;;11.90;99.90;;;;;;5067568;28;20028;-84
2022/01/02 10:29:14;;;;;;;7.13;2.50;;;11.80;99.90;;;;;;5057968;23;20099;-83
2022/01/02 10:31:40;;;;;;;5.28;1.33;;;11.90;99.90;;;;;;5048084;28;20029;-83
2022/01/02 10:34:08;;;;;;;5.82;1.58;;;12.00;99.90;;;;;;5048664;28;20052;-85
2022/01/02 10:36:36;;;;;;;5.15;1.73;;;12.00;99.90;;;;;;5033030;28;20033;-83
2022/01/02 10:39:18;;;;;;;5.85;1.40;;;12.10;99.90;;;;;;5027961;28;20102;-90
2022/01/02 10:41:49;;;;;;;7.90;2.50;;;12.10;99.90;;;;;;5036563;28;20056;-86
2022/01/02 10:44:20;;;;;;;3.17;1.30;;;12.20;99.90;;;;;;5040628;28;20079;-85
2022/01/02 10:47:21;;;;;;;4.38;1.75;;;12.20;99.90;;;;;;5027159;28;20476;-85
2022/01/02 10:49:51;;;;;;;7.45;1.50;;;12.20;99.90;;;;;;5059121;28;20044;-85
2022/01/02 10:52:27;;;;;;;4.05;1.23;;;12.30;99.90;;;;;;5061534;28;20100;-84
2022/01/02 10:54:53;;;;;;;4.55;1.08;;;12.30;99.90;;;;;;5044573;28;20046;-85
2022/01/02 10:57:19;;;;;;;6.90;1.65;;;12.40;99.90;;;;;;5047870;28;20072;-85
2022/01/02 10:59:46;;;;;;;3.65;1.48;;;12.50;99.90;;;;;;5047062;28;20057;-84
2022/01/02 11:02:14;;;;;;;9.25;2.10;;;12.40;99.90;;;;;;5035890;28;20101;-84
2022/01/02 11:04:49;;;;;;;6.65;1.13;;;12.40;99.90;;;;;;5031482;28;20132;-83
2022/01/02 11:07:23;;;;;;;3.72;1.33;;;12.40;99.90;;;;;;5036201;28;20033;-84
2022/01/02 11:09:54;;;;;;;5.10;1.35;;;12.40;99.90;;;;;;5045361;28;20051;-84
2022/01/02 11:12:21;;;;;;;4.00;1.00;;;12.40;99.90;;;;;;5044856;28;20037;-84
2022/01/02 11:14:49;;;;;;;3.92;1.10;;;12.30;99.90;;;;;;5040690;28;20496;-85
2022/01/02 11:17:16;;;;;;;3.95;1.00;;;12.30;99.90;;;;;;5042262;28;20110;-85
2022/01/02 11:19:42;;;;;;;4.95;1.60;;;12.30;99.90;;;;;;5060344;28;20080;-85
2022/01/02 11:22:13;;;;;;;4.57;1.23;;;12.20;99.90;;;;;;5032092;28;20032;-85
2022/01/02 11:25:04;;;;;;;4.95;1.40;;;12.20;99.90;;;;;;5048244;28;20086;-85
2022/01/02 11:28:04;;;;;;;6.15;1.50;;;12.20;99.90;;;;;;5028826;28;20092;-85
2022/01/02 11:30:32;;;;;;;3.60;1.27;;;12.30;99.90;;;;;;4979350;28;20055;-86
2022/01/02 11:33:16;;;;;;;5.57;1.52;;;12.30;99.90;;;;;;4981785;28;20543;-86
2022/01/02 11:35:49;;;;;;;4.90;1.38;;;12.20;99.90;;;;;;4955246;28;20039;-87
2022/01/02 11:38:17;;;;;;;6.22;1.52;;;12.20;99.90;;;;;;4968857;28;20529;-85
2022/01/02 11:40:51;;;;;;;4.53;1.38;;;12.30;99.90;;;;;;4967091;28;20360;-85
2022/01/02 11:43:35;;;;;;;4.43;1.60;;;12.20;99.90;;;;;;4985235;28;20458;-85
2022/01/02 11:46:23;;;;;;;6.53;1.65;;;12.40;99.90;;;;;;4949665;29;20039;-85
2022/01/02 11:49:13;;;;;;;12.23;2.70;;;12.40;99.90;;;;;;4965556;28;20134;-84
2022/01/02 11:51:50;;;;;;;5.60;1.30;;;12.30;99.90;;;;;;4982748;28;20034;-85
2022/01/02 11:54:39;;;;;;;6.10;1.50;;;12.30;99.90;;;;;;4984401;28;20038;-84
2022/01/02 11:57:11;;;;;;;4.57;1.33;;;12.30;99.90;;;;;;4965219;29;20067;-83
2022/01/02 11:59:39;;;;;;;5.25;1.30;;;12.30;99.90;;;;;;4981921;28;20027;-85
2022/01/02 12:02:30;;;;;;;5.22;1.80;;;12.30;99.90;;;;;;4967568;28;20034;-83
2022/01/02 12:04:58;;;;;;;6.05;1.27;;;12.40;99.90;;;;;;4942644;28;20161;-84
2022/01/02 12:07:33;;;;;;;6.57;1.17;;;12.40;99.90;;;;;;4998886;28;20385;-84
2022/01/02 12:10:17;;;;;;;5.35;1.00;;;12.40;99.90;;;;;;5064082;28;20104;-85
2022/01/02 12:13:10;;;;;;;9.60;1.75;;;12.50;99.90;;;;;;5058681;28;20097;-84
2022/01/02 12:15:38;;;;;;;5.43;1.20;;;12.50;99.90;;;;;;5044208;28;20039;-84
2022/01/02 12:18:13;;;;;;;5.38;1.23;;;12.60;99.90;;;;;;5043086;28;20033;-84
2022/01/02 12:20:54;;;;;;;5.88;1.08;;;12.60;99.90;;;;;;5028210;28;20080;-84
2022/01/02 12:23:35;;;;;;;4.93;1.00;;;12.60;99.90;;;;;;5061278;28;20108;-83
2022/01/02 12:26:03;;;;;;;5.28;1.40;;;12.60;99.90;;;;;;5041694;28;20052;-83
2022/01/02 12:28:43;;;;;;;9.15;1.45;;;12.60;99.90;;;;;;5061563;28;20060;-83
2022/01/02 12:31:11;;;;;;;6.53;1.42;;;12.60;99.90;;;;;;5040103;28;20045;-84
2022/01/02 12:33:38;;;;;;;7.88;1.05;;;12.60;99.90;;;;;;5042173;28;20037;-83
2022/01/02 12:36:19;;;;;;;9.70;1.77;;;12.60;99.90;;;;;;5028554;28;20033;-84
2022/01/02 12:38:49;;;;;;;6.53;0.93;;;12.70;99.90;;;;;;5008269;28;20030;-82
2022/01/02 12:41:16;;;;;;;7.32;1.17;;;12.70;99.90;;;;;;5026808;28;20095;-83
2022/01/02 12:44:04;;;;;;;5.68;1.00;;;12.70;99.90;;;;;;5041997;28;20038;-84
2022/01/02 12:46:49;;;;;;;6.03;1.02;;;12.70;99.90;;;;;;5032145;28;20060;-84
2022/01/02 12:49:25;;;;;;;9.50;1.00;;;12.60;99.90;;;;;;5034678;28;20041;-83
2022/01/02 12:51:59;;;;;;;8.70;0.80;;;12.60;99.90;;;;;;5040616;28;20093;-83
2022/01/02 12:54:27;;;;;;;5.82;1.17;;;12.50;99.90;;;;;;5024377;28;20052;-83
2022/01/02 12:56:59;;;;;;;7.80;1.00;;;12.60;99.90;;;;;;5018461;28;20053;-83
2022/01/02 12:59:31;;;;;;;10.73;1.52;;;12.70;99.90;;;;;;5042104;28;20063;-84
2022/01/02 13:02:14;;;;;;;5.35;1.20;;;12.80;99.90;;;;;;4998906;28;20111;-83
2022/01/02 13:04:49;;;;;;;4.80;0.95;;;12.70;99.90;;;;;;5026317;28;20033;-89